Terminal Aerodrome Forecast
Issued by NWS

Home | Current Version | Previous Version | Graphics & Text | Print | Product List | Glossary On
Versions: 1 2 3 4 5 6 7 8 9 10 11 12 13 14 15 16 17 18 19
000
FTUS43 KTOP 200228 AAB
TAFMHK
TAF AMD
KMHK 200228Z 2002/2024 12004KT 1SM -DZ BR OVC003
     FM200500 00000KT 1/2SM FG OVC003
      TEMPO 2011/2015 1/4SM FG
     FM201500 13005KT 3SM BR OVC003=

USA.gov is the U.S. government's official web portal to all federal, state and local government web resources and services.